createdAt,value
2023-02-07T00:01:10.070Z,8.60
2023-02-07T00:03:37.345Z,8.27
2023-02-07T00:06:10.049Z,10.00
2023-02-07T00:08:38.602Z,8.43
2023-02-07T00:11:07.221Z,7.70
2023-02-07T00:13:34.769Z,8.55
2023-02-07T00:16:03.186Z,8.17
2023-02-07T00:18:30.418Z,7.97
2023-02-07T00:21:02.937Z,7.50
2023-02-07T00:23:30.300Z,10.77
2023-02-07T00:25:57.360Z,8.00
2023-02-07T00:28:24.677Z,8.63
2023-02-07T00:30:52.306Z,10.23
2023-02-07T00:33:19.523Z,9.10
2023-02-07T00:35:46.693Z,8.80
2023-02-07T00:38:13.735Z,9.07
2023-02-07T00:40:40.781Z,8.67
2023-02-07T00:43:08.074Z,7.95
2023-02-07T00:45:35.306Z,9.38
2023-02-07T00:48:02.867Z,8.50
2023-02-07T00:50:29.896Z,7.82
2023-02-07T00:52:56.981Z,8.20
2023-02-07T00:55:24.027Z,8.50
2023-02-07T00:57:51.181Z,7.95
2023-02-07T01:00:18.315Z,8.30
2023-02-07T01:02:45.557Z,8.00
2023-02-07T01:05:12.691Z,7.23
2023-02-07T01:07:40.018Z,8.32
2023-02-07T01:10:07.678Z,8.27
2023-02-07T01:12:34.946Z,7.53
2023-02-07T01:15:02.429Z,6.45
2023-02-07T01:17:29.580Z,7.10
2023-02-07T01:19:58.680Z,6.35
2023-02-07T01:22:26.853Z,7.40
2023-02-07T01:24:55.029Z,6.85
2023-02-07T01:27:23.318Z,7.30
2023-02-07T01:29:50.702Z,7.33
2023-02-07T01:32:17.959Z,6.43
2023-02-07T01:34:45.256Z,6.65
2023-02-07T01:37:12.651Z,5.05
2023-02-07T01:39:39.898Z,6.85
2023-02-07T01:42:07.347Z,7.00
2023-02-07T01:44:37.431Z,6.47
2023-02-07T01:47:04.546Z,5.63
2023-02-07T01:49:34.326Z,5.63
2023-02-07T01:52:08.806Z,7.35
2023-02-07T01:54:36.658Z,6.67
2023-02-07T01:57:07.264Z,6.68
2023-02-07T01:59:36.018Z,7.45
2023-02-07T02:02:04.621Z,6.68
2023-02-07T02:04:31.983Z,6.60
2023-02-07T02:06:59.895Z,7.00
2023-02-07T02:09:27.509Z,7.47
2023-02-07T02:12:03.854Z,7.57
2023-02-07T02:14:55.375Z,6.22
2023-02-07T02:17:40.182Z,5.85
2023-02-07T02:20:44.739Z,6.27
2023-02-07T02:23:20.579Z,7.03
2023-02-07T02:26:05.610Z,6.75
2023-02-07T02:29:00.710Z,6.18
2023-02-07T02:31:51.867Z,5.95
2023-02-07T02:34:38.707Z,6.37
2023-02-07T02:37:36.326Z,6.50
2023-02-07T02:40:08.100Z,6.85
2023-02-07T02:42:42.431Z,6.88
2023-02-07T02:45:16.886Z,6.53
2023-02-07T02:47:45.803Z,6.70
2023-02-07T02:50:15.776Z,6.57
2023-02-07T02:52:50.517Z,5.95
2023-02-07T02:55:22.735Z,6.03
2023-02-07T02:58:11.547Z,6.68
2023-02-07T03:00:46.635Z,5.63
2023-02-07T03:03:49.171Z,6.90
2023-02-07T03:06:35.301Z,6.35
2023-02-07T03:09:30.212Z,6.60
2023-02-07T03:12:22.229Z,6.88
2023-02-07T03:14:53.290Z,6.70
2023-02-07T03:17:25.030Z,7.13
2023-02-07T03:20:30.841Z,5.80
2023-02-07T03:22:59.213Z,5.90
2023-02-07T03:25:27.748Z,5.70
2023-02-07T03:27:56.111Z,5.33
2023-02-07T03:30:26.611Z,6.82
2023-02-07T03:32:58.594Z,6.90
2023-02-07T03:36:06.054Z,6.35
2023-02-07T03:38:33.179Z,5.32
2023-02-07T03:41:05.344Z,5.77
2023-02-07T03:43:33.614Z,5.70
2023-02-07T03:46:00.733Z,6.45
2023-02-07T03:48:27.798Z,6.70
2023-02-07T03:50:54.883Z,6.55
2023-02-07T03:53:21.950Z,5.33
2023-02-07T03:55:49.021Z,5.97
2023-02-07T03:58:16.064Z,5.90
2023-02-07T04:00:43.157Z,6.30
2023-02-07T04:03:10.528Z,6.35
2023-02-07T04:05:38.127Z,5.00
2023-02-07T04:08:05.483Z,7.28
2023-02-07T04:10:32.569Z,7.53
2023-02-07T04:12:59.632Z,6.10
2023-02-07T04:15:26.830Z,6.97
2023-02-07T04:17:53.851Z,6.00
2023-02-07T04:20:21.017Z,6.30
2023-02-07T04:22:48.263Z,6.05
2023-02-07T04:25:15.359Z,7.05
2023-02-07T04:27:42.524Z,5.68
2023-02-07T04:30:10.151Z,5.60
2023-02-07T04:32:37.203Z,5.63
2023-02-07T04:35:04.591Z,6.00
2023-02-07T04:37:32.039Z,6.57
2023-02-07T04:39:59.136Z,6.22
2023-02-07T04:42:26.191Z,7.53
2023-02-07T04:44:53.300Z,5.25
2023-02-07T04:47:20.365Z,5.65
2023-02-07T04:49:47.487Z,6.60
2023-02-07T04:52:14.668Z,6.63
2023-02-07T04:54:41.734Z,6.73
2023-02-07T04:57:08.905Z,6.97
2023-02-07T04:59:35.973Z,6.80
2023-02-07T05:02:03.010Z,6.65
2023-02-07T05:04:30.144Z,6.15
2023-02-07T05:06:58.181Z,5.50
2023-02-07T05:09:25.517Z,5.63
2023-02-07T05:11:52.655Z,5.95
2023-02-07T05:14:19.742Z,5.70
2023-02-07T05:16:46.996Z,5.50
2023-02-07T05:19:14.072Z,5.27
2023-02-07T05:21:41.145Z,6.35
2023-02-07T05:24:08.273Z,6.53
2023-02-07T05:26:35.352Z,6.28
2023-02-07T05:29:02.512Z,5.93
2023-02-07T05:32:06.861Z,5.90
2023-02-07T05:34:34.077Z,5.60
2023-02-07T05:37:01.120Z,5.57
2023-02-07T05:39:28.183Z,5.68
2023-02-07T05:41:55.268Z,5.85
2023-02-07T05:44:22.800Z,6.60
2023-02-07T05:46:51.777Z,5.80
2023-02-07T05:49:19.668Z,5.93
2023-02-07T05:51:46.697Z,6.63
2023-02-07T05:54:13.721Z,6.63
2023-02-07T05:56:40.772Z,5.60
2023-02-07T05:59:07.831Z,6.32
2023-02-07T06:01:37.322Z,7.13
2023-02-07T06:04:04.583Z,6.78
2023-02-07T06:06:31.636Z,5.53
2023-02-07T06:08:58.678Z,5.63
2023-02-07T06:11:25.977Z,5.60
2023-02-07T06:13:53.050Z,6.20
2023-02-07T06:16:20.186Z,6.47
2023-02-07T06:18:47.292Z,5.43
2023-02-07T06:21:14.347Z,5.53
2023-02-07T06:23:41.445Z,5.53
2023-02-07T06:26:08.725Z,6.50
2023-02-07T06:28:35.758Z,6.68
2023-02-07T06:31:03.002Z,7.07
2023-02-07T06:33:30.540Z,6.87
2023-02-07T06:35:57.562Z,6.82
2023-02-07T06:38:24.599Z,6.40
2023-02-07T06:40:51.817Z,8.85
2023-02-07T06:43:18.892Z,6.57
2023-02-07T06:45:46.042Z,6.03
2023-02-07T06:48:13.217Z,6.25
2023-02-07T06:50:40.241Z,6.65
2023-02-07T06:53:07.258Z,6.20
2023-02-07T06:55:39.564Z,6.47
2023-02-07T06:58:07.262Z,7.23
2023-02-07T07:00:34.312Z,7.20
2023-02-07T07:03:01.803Z,6.50
2023-02-07T07:05:29.705Z,5.60
2023-02-07T07:07:57.060Z,6.80
2023-02-07T07:10:24.215Z,8.07
2023-02-07T07:12:51.259Z,7.38
2023-02-07T07:15:18.365Z,6.95
2023-02-07T07:17:45.414Z,7.72
2023-02-07T07:20:13.047Z,8.27
2023-02-07T07:22:40.089Z,6.20
2023-02-07T07:25:07.202Z,8.30
2023-02-07T07:27:34.380Z,8.05
2023-02-07T07:30:01.505Z,8.63
2023-02-07T07:32:34.340Z,9.57
2023-02-07T07:35:02.621Z,7.60
2023-02-07T07:37:29.739Z,7.75
2023-02-07T07:39:57.139Z,8.15
2023-02-07T07:42:24.200Z,8.30
2023-02-07T07:44:51.360Z,6.03
2023-02-07T07:47:18.977Z,7.77
2023-02-07T07:49:46.083Z,7.53
2023-02-07T07:52:13.098Z,6.55
2023-02-07T07:54:40.136Z,7.32
2023-02-07T07:57:07.199Z,7.03
2023-02-07T07:59:34.286Z,6.80
2023-02-07T08:02:01.400Z,6.82
2023-02-07T08:04:28.465Z,8.18
2023-02-07T08:06:55.600Z,5.30
2023-02-07T08:09:22.642Z,5.45
2023-02-07T08:11:49.701Z,5.70
2023-02-07T08:14:17.375Z,7.38
2023-02-07T08:16:44.432Z,5.72
2023-02-07T08:19:11.663Z,5.07
2023-02-07T08:21:38.768Z,6.03
2023-02-07T08:24:06.048Z,5.97
2023-02-07T08:26:33.072Z,5.85
2023-02-07T08:29:00.234Z,6.05
2023-02-07T08:31:27.411Z,6.07
2023-02-07T08:33:54.590Z,6.32
2023-02-07T08:36:21.961Z,7.60
2023-02-07T08:38:49.045Z,7.00
2023-02-07T08:41:16.182Z,5.45
2023-02-07T08:43:43.240Z,5.18
2023-02-07T08:46:10.392Z,6.38
2023-02-07T08:48:37.584Z,5.07
2023-02-07T08:51:09.011Z,7.03
2023-02-07T08:53:37.031Z,6.25
2023-02-07T08:56:04.728Z,6.88
2023-02-07T08:58:32.212Z,7.07
2023-02-07T09:00:59.418Z,7.33
2023-02-07T09:03:26.616Z,6.28
2023-02-07T09:05:58.987Z,6.15
2023-02-07T09:08:26.232Z,6.20
2023-02-07T09:10:53.349Z,6.55
2023-02-07T09:13:20.423Z,5.83
2023-02-07T09:15:55.890Z,7.22
2023-02-07T09:18:24.089Z,6.63
2023-02-07T09:20:51.413Z,8.15
2023-02-07T09:23:19.202Z,7.15
2023-02-07T09:25:49.498Z,7.73
2023-02-07T09:28:17.825Z,7.35
2023-02-07T09:30:45.835Z,7.65
2023-02-07T09:33:13.793Z,7.45
2023-02-07T09:35:43.790Z,7.68
2023-02-07T09:38:17.154Z,7.53
2023-02-07T09:40:45.516Z,7.50
2023-02-07T09:43:22.484Z,6.93
2023-02-07T09:45:54.277Z,5.97
2023-02-07T09:48:32.181Z,6.68
2023-02-07T09:51:00.809Z,7.23
2023-02-07T09:53:54.437Z,7.80
2023-02-07T09:56:22.377Z,8.25
2023-02-07T09:59:00.669Z,7.93
2023-02-07T10:01:33.525Z,6.78
2023-02-07T10:04:12.825Z,7.60
2023-02-07T10:06:41.665Z,7.20
2023-02-07T10:09:12.785Z,7.30
2023-02-07T10:11:45.791Z,7.68
2023-02-07T10:14:34.133Z,7.72
2023-02-07T10:17:25.730Z,6.90
2023-02-07T10:20:10.298Z,8.07
2023-02-07T10:23:03.308Z,8.25
2023-02-07T10:25:39.520Z,8.07
2023-02-07T10:28:26.772Z,7.65
2023-02-07T10:30:57.462Z,8.17
2023-02-07T10:33:34.464Z,6.45
2023-02-07T10:36:07.262Z,7.25
2023-02-07T10:38:40.214Z,7.82
2023-02-07T10:41:20.561Z,7.00
2023-02-07T10:43:47.892Z,6.87
2023-02-07T10:46:16.543Z,8.10
2023-02-07T10:48:43.684Z,7.22
2023-02-07T10:51:35.610Z,8.02
2023-02-07T10:54:11.394Z,5.95
2023-02-07T10:56:44.623Z,8.60
2023-02-07T10:59:30.157Z,7.95
2023-02-07T11:01:57.440Z,7.75
2023-02-07T11:04:39.229Z,6.97
2023-02-07T11:07:07.957Z,7.95
2023-02-07T11:09:38.046Z,8.30
2023-02-07T11:12:23.512Z,8.85
2023-02-07T11:15:01.330Z,8.60
2023-02-07T11:17:29.160Z,8.75
2023-02-07T11:19:56.304Z,9.05
2023-02-07T11:22:24.541Z,9.63
2023-02-07T11:24:53.691Z,8.95
2023-02-07T11:27:21.848Z,8.52
2023-02-07T11:29:56.166Z,9.15
2023-02-07T11:32:25.627Z,8.35
2023-02-07T11:34:56.819Z,8.13
2023-02-07T11:37:43.501Z,8.40
2023-02-07T11:40:19.281Z,7.63
2023-02-07T11:42:58.976Z,9.10
2023-02-07T11:45:27.263Z,9.15
2023-02-07T11:47:56.282Z,8.53
2023-02-07T11:50:32.273Z,8.52
2023-02-07T11:53:00.962Z,7.72
2023-02-07T11:55:35.168Z,8.07
2023-02-07T11:58:08.687Z,7.78
2023-02-07T12:00:36.950Z,8.80
2023-02-07T12:03:08.084Z,8.63
2023-02-07T12:05:41.942Z,8.18
2023-02-07T12:08:15.627Z,8.40
2023-02-07T12:10:45.113Z,7.90
2023-02-07T12:13:19.941Z,7.90
2023-02-07T12:16:02.600Z,8.45
2023-02-07T12:18:34.065Z,8.43
2023-02-07T12:21:12.375Z,8.38
2023-02-07T12:23:43.696Z,7.68
2023-02-07T12:26:23.657Z,8.33
2023-02-07T12:29:15.146Z,7.88
2023-02-07T12:31:57.021Z,8.00
2023-02-07T12:34:31.885Z,7.70
2023-02-07T12:37:05.532Z,6.90
2023-02-07T12:39:43.299Z,8.97
2023-02-07T12:42:39.528Z,8.57
2023-02-07T12:45:07.604Z,8.05
2023-02-07T12:47:59.643Z,7.88
2023-02-07T12:50:48.205Z,7.82
2023-02-07T12:53:28.441Z,8.27
2023-02-07T12:56:17.644Z,7.82
2023-02-07T12:59:02.444Z,7.97
2023-02-07T13:01:49.882Z,7.45
2023-02-07T13:04:52.282Z,8.18
2023-02-07T13:07:36.231Z,8.53
2023-02-07T13:10:23.237Z,9.02
2023-02-07T13:13:10.249Z,9.15
2023-02-07T13:15:42.687Z,8.88
2023-02-07T13:18:21.750Z,10.18
2023-02-07T13:20:54.371Z,8.30
2023-02-07T13:23:23.152Z,8.50
2023-02-07T13:25:57.868Z,8.30
2023-02-07T13:28:40.522Z,7.18
2023-02-07T13:31:11.483Z,7.43
2023-02-07T13:33:40.092Z,8.47
2023-02-07T13:36:36.122Z,8.25
2023-02-07T13:39:14.141Z,8.10
2023-02-07T13:42:09.892Z,8.75
2023-02-07T13:44:51.656Z,7.30
2023-02-07T13:47:31.665Z,8.03
2023-02-07T13:50:04.685Z,7.85
2023-02-07T13:52:43.791Z,7.50
2023-02-07T13:55:33.277Z,8.35
2023-02-07T13:58:19.187Z,7.63
2023-02-07T14:00:58.378Z,8.57
2023-02-07T14:03:35.678Z,8.82
2023-02-07T14:06:22.610Z,9.48
2023-02-07T14:09:24.215Z,9.18
2023-02-07T14:12:01.634Z,8.98
2023-02-07T14:14:31.063Z,10.20
2023-02-07T14:17:04.001Z,9.82
2023-02-07T14:19:45.408Z,9.15
2023-02-07T14:22:27.068Z,10.57
2023-02-07T14:25:03.420Z,9.65
2023-02-07T14:27:39.156Z,10.20
2023-02-07T14:30:13.078Z,10.60
2023-02-07T14:33:00.412Z,9.98
2023-02-07T14:35:27.584Z,8.63
2023-02-07T14:38:06.629Z,10.63
2023-02-07T14:41:01.902Z,9.77
2023-02-07T14:43:40.360Z,10.18
2023-02-07T14:46:11.303Z,9.90
2023-02-07T14:48:44.513Z,9.63
2023-02-07T14:51:19.135Z,10.00
2023-02-07T14:53:55.380Z,10.07
2023-02-07T14:56:38.356Z,9.38
2023-02-07T14:59:06.583Z,9.63
2023-02-07T15:01:33.671Z,10.35
2023-02-07T15:04:02.366Z,10.13
2023-02-07T15:06:32.602Z,9.67
2023-02-07T15:09:01.060Z,9.32
2023-02-07T15:11:29.419Z,10.05
2023-02-07T15:13:59.421Z,9.93
2023-02-07T15:16:29.678Z,10.90
2023-02-07T15:19:21.129Z,12.07
2023-02-07T15:21:51.131Z,11.27
2023-02-07T15:24:26.844Z,12.20
2023-02-07T15:26:58.462Z,13.02
2023-02-07T15:29:28.577Z,12.80
2023-02-07T15:31:56.124Z,12.33
2023-02-07T15:34:31.485Z,12.57
2023-02-07T15:37:00.644Z,13.38
2023-02-07T15:39:29.356Z,12.70
2023-02-07T15:41:57.127Z,12.35
2023-02-07T15:44:29.588Z,12.57
2023-02-07T15:47:01.906Z,12.10
2023-02-07T15:49:30.379Z,12.50
2023-02-07T15:52:01.998Z,12.73
2023-02-07T15:54:29.106Z,12.90
2023-02-07T15:57:00.020Z,14.10
2023-02-07T15:59:31.485Z,13.60
2023-02-07T16:02:00.946Z,14.88
2023-02-07T16:04:30.473Z,13.23
2023-02-07T16:07:01.608Z,13.40
2023-02-07T16:09:43.249Z,13.50
2023-02-07T16:12:32.132Z,12.98
2023-02-07T16:15:00.635Z,12.25
2023-02-07T16:17:41.883Z,12.35
2023-02-07T16:20:14.445Z,13.02
2023-02-07T16:22:45.324Z,14.93
2023-02-07T16:25:19.254Z,15.50
2023-02-07T16:27:48.963Z,14.43
2023-02-07T16:30:25.825Z,14.32
2023-02-07T16:32:52.949Z,15.43
2023-02-07T16:35:23.119Z,13.73
2023-02-07T16:37:50.462Z,13.55
2023-02-07T16:40:18.340Z,13.45
2023-02-07T16:42:45.611Z,13.55
2023-02-07T16:45:25.423Z,12.43
2023-02-07T16:47:52.552Z,13.40
2023-02-07T16:50:21.684Z,13.25
2023-02-07T16:52:49.820Z,13.63
2023-02-07T16:55:18.434Z,14.10
2023-02-07T16:57:47.567Z,14.40
2023-02-07T17:00:21.115Z,15.10
2023-02-07T17:02:50.428Z,18.55
2023-02-07T17:05:18.812Z,16.83
2023-02-07T17:07:46.571Z,15.07
2023-02-07T17:10:21.560Z,15.43
2023-02-07T17:12:48.692Z,13.77
2023-02-07T17:15:16.531Z,14.73
2023-02-07T17:17:43.653Z,15.15
2023-02-07T17:20:21.742Z,13.38
2023-02-07T17:25:22.637Z,14.10
2023-02-07T17:27:49.758Z,14.82
2023-02-07T17:30:22.016Z,14.10
2023-02-07T17:32:49.485Z,13.52
2023-02-07T17:35:16.577Z,14.45
2023-02-07T17:37:43.758Z,14.70
2023-02-07T17:40:23.900Z,14.95
2023-02-07T17:42:51.141Z,15.25
2023-02-07T17:45:18.259Z,14.43
2023-02-07T17:47:45.554Z,14.10
2023-02-07T17:50:21.344Z,15.50
2023-02-07T17:52:48.429Z,13.90
2023-02-07T17:55:16.181Z,13.98
2023-02-07T17:57:43.781Z,13.20
2023-02-07T18:00:24.144Z,13.60
2023-02-07T18:02:51.527Z,12.97
2023-02-07T18:05:18.662Z,13.77
2023-02-07T18:07:46.614Z,14.90
2023-02-07T18:10:20.035Z,15.07
2023-02-07T18:12:47.414Z,12.98
2023-02-07T18:15:14.852Z,13.13
2023-02-07T18:17:47.185Z,13.75
2023-02-07T18:20:20.094Z,14.13
2023-02-07T18:22:47.382Z,15.40
2023-02-07T18:25:14.823Z,13.95
2023-02-07T18:27:42.724Z,13.57
2023-02-07T18:30:20.944Z,15.73
2023-02-07T18:32:48.881Z,13.23
2023-02-07T18:35:16.443Z,14.25
2023-02-07T18:37:43.524Z,14.00
2023-02-07T18:40:12.967Z,13.57
2023-02-07T18:42:40.057Z,15.15
2023-02-07T18:45:07.672Z,14.77
2023-02-07T18:47:34.986Z,13.85
2023-02-07T18:50:02.045Z,14.05
2023-02-07T18:52:29.632Z,14.63
2023-02-07T18:54:57.828Z,14.52
2023-02-07T18:57:24.854Z,14.13
2023-02-07T18:59:52.258Z,13.70
2023-02-07T19:02:19.446Z,13.65
2023-02-07T19:04:47.624Z,13.60
2023-02-07T19:07:15.005Z,13.43
2023-02-07T19:09:42.184Z,13.77
2023-02-07T19:12:10.772Z,14.07
2023-02-07T19:14:38.245Z,14.27
2023-02-07T19:17:05.346Z,12.83
2023-02-07T19:19:32.754Z,13.52
2023-02-07T19:22:00.329Z,12.23
2023-02-07T19:24:27.891Z,15.05
2023-02-07T19:26:56.731Z,14.52
2023-02-07T19:29:29.477Z,15.03
2023-02-07T19:32:02.089Z,14.43
2023-02-07T19:34:29.497Z,14.15
2023-02-07T19:36:56.974Z,15.45
2023-02-07T19:39:24.814Z,14.95
2023-02-07T19:41:52.033Z,16.67
2023-02-07T19:44:19.095Z,17.60
2023-02-07T19:46:46.373Z,15.75
2023-02-07T19:49:13.995Z,16.92
2023-02-07T19:51:41.834Z,15.18
2023-02-07T19:54:08.910Z,16.50
2023-02-07T19:56:36.631Z,16.15
2023-02-07T19:59:05.334Z,16.48
2023-02-07T20:01:34.180Z,17.45
2023-02-07T20:04:01.502Z,16.25
2023-02-07T20:06:33.051Z,16.80
2023-02-07T20:09:03.784Z,16.35
2023-02-07T20:11:31.014Z,15.65
2023-02-07T20:14:03.991Z,15.25
2023-02-07T20:16:34.469Z,16.35
2023-02-07T20:19:02.692Z,14.97
2023-02-07T20:21:30.589Z,15.88
2023-02-07T20:23:57.754Z,17.10
2023-02-07T20:26:31.572Z,17.73
2023-02-07T20:29:06.722Z,16.42
2023-02-07T20:31:34.019Z,17.73
2023-02-07T20:34:02.068Z,16.45
2023-02-07T20:36:30.852Z,15.85
2023-02-07T20:38:59.327Z,15.63
2023-02-07T20:41:32.455Z,17.02
2023-02-07T20:44:04.354Z,17.33
2023-02-07T20:46:34.239Z,16.50
2023-02-07T20:49:04.419Z,16.95
2023-02-07T20:51:31.782Z,17.45
2023-02-07T20:54:00.576Z,16.40
2023-02-07T20:56:28.348Z,17.70
2023-02-07T20:58:55.796Z,17.73
2023-02-07T21:01:24.555Z,16.20
2023-02-07T21:03:53.648Z,16.42
2023-02-07T21:06:22.893Z,16.45
2023-02-07T21:09:00.059Z,16.77
2023-02-07T21:11:36.060Z,17.02
2023-02-07T21:14:05.251Z,15.60
2023-02-07T21:16:32.663Z,15.32
2023-02-07T21:19:00.136Z,17.77
2023-02-07T21:21:27.784Z,15.70
2023-02-07T21:23:55.116Z,16.52
2023-02-07T21:26:22.176Z,17.60
2023-02-07T21:28:49.624Z,15.93
2023-02-07T21:31:19.500Z,16.23
2023-02-07T21:33:47.634Z,17.00
2023-02-07T21:36:18.048Z,16.42
2023-02-07T21:38:48.504Z,16.10
2023-02-07T21:41:17.863Z,16.27
2023-02-07T21:43:45.036Z,16.67
2023-02-07T21:46:17.894Z,17.07
2023-02-07T21:48:46.449Z,16.30
2023-02-07T21:51:16.354Z,17.15
2023-02-07T21:53:44.464Z,18.20
2023-02-07T21:56:15.767Z,14.82
2023-02-07T21:58:43.402Z,16.53
2023-02-07T22:01:16.690Z,18.75
2023-02-07T22:03:45.997Z,19.45
2023-02-07T22:06:15.083Z,20.13
2023-02-07T22:08:47.473Z,17.70
2023-02-07T22:11:17.671Z,17.67
2023-02-07T22:13:45.461Z,16.10
2023-02-07T22:16:13.998Z,16.98
2023-02-07T22:18:41.886Z,18.33
2023-02-07T22:21:11.705Z,17.05
2023-02-07T22:23:38.786Z,17.30
2023-02-07T22:26:06.499Z,16.55
2023-02-07T22:28:33.941Z,17.70
2023-02-07T22:31:01.236Z,17.20
2023-02-07T22:33:28.466Z,17.17
2023-02-07T22:35:55.536Z,16.93
2023-02-07T22:38:23.171Z,17.10
2023-02-07T22:40:50.218Z,15.25
2023-02-07T22:43:17.323Z,15.65
2023-02-07T22:45:46.131Z,17.13
2023-02-07T22:48:15.328Z,16.73
2023-02-07T22:50:43.339Z,17.25
2023-02-07T22:53:13.361Z,15.82
2023-02-07T22:55:40.924Z,16.15
2023-02-07T22:58:08.428Z,16.13
2023-02-07T23:00:35.735Z,16.37
2023-02-07T23:03:02.811Z,16.33
2023-02-07T23:05:29.901Z,14.43
2023-02-07T23:07:56.985Z,15.40
2023-02-07T23:10:26.327Z,15.85
2023-02-07T23:12:53.621Z,15.37
2023-02-07T23:15:20.686Z,15.32
2023-02-07T23:17:47.707Z,14.52
2023-02-07T23:20:15.096Z,14.18
2023-02-07T23:22:42.137Z,15.55
2023-02-07T23:25:10.000Z,16.77
2023-02-07T23:27:37.235Z,16.58
2023-02-07T23:30:04.812Z,15.68
2023-02-07T23:32:31.886Z,15.60
2023-02-07T23:34:59.127Z,16.15
2023-02-07T23:37:26.193Z,15.53
2023-02-07T23:39:53.242Z,16.80
2023-02-07T23:42:20.250Z,17.13
2023-02-07T23:44:50.270Z,16.02
2023-02-07T23:47:18.406Z,16.33
2023-02-07T23:49:45.639Z,16.30
2023-02-07T23:52:12.779Z,16.40
2023-02-07T23:54:40.101Z,16.15
2023-02-07T23:57:07.150Z,16.73
2023-02-07T23:59:34.852Z,15.30
